createdAt,value
2022-10-21T00:00:18.793Z,21.10
2022-10-21T00:03:06.076Z,21.87
2022-10-21T00:05:33.014Z,22.60
2022-10-21T00:07:59.977Z,19.43
2022-10-21T00:10:26.915Z,18.27
2022-10-21T00:12:54.009Z,19.40
2022-10-21T00:15:20.901Z,18.03
2022-10-21T00:17:47.879Z,17.63
2022-10-21T00:20:14.744Z,18.17
2022-10-21T00:22:41.854Z,17.50
2022-10-21T00:25:09.277Z,17.17
2022-10-21T00:27:36.654Z,17.33
2022-10-21T00:30:05.802Z,15.77
2022-10-21T00:32:33.104Z,15.37
2022-10-21T00:35:00.102Z,15.17
2022-10-21T00:37:30.321Z,17.10
2022-10-21T00:39:57.254Z,18.97
2022-10-21T00:42:32.079Z,18.23
2022-10-21T00:45:04.951Z,18.17
2022-10-21T00:48:03.274Z,20.00
2022-10-21T00:50:54.916Z,18.43
2022-10-21T00:53:22.774Z,15.90
2022-10-21T00:56:07.595Z,16.53
2022-10-21T00:58:35.201Z,16.87
2022-10-21T01:01:05.050Z,14.70
2022-10-21T01:03:32.220Z,15.20
2022-10-21T01:06:02.646Z,14.80
2022-10-21T01:08:30.251Z,14.27
2022-10-21T01:10:58.215Z,15.17
2022-10-21T01:14:02.340Z,14.23
2022-10-21T01:16:43.114Z,13.97
2022-10-21T01:19:34.748Z,15.57
2022-10-21T01:22:30.044Z,14.80
2022-10-21T01:25:37.508Z,15.77
2022-10-21T01:28:33.930Z,15.90
2022-10-21T01:31:22.844Z,17.67
2022-10-21T01:34:34.245Z,17.00
2022-10-21T01:37:13.745Z,15.73
2022-10-21T01:39:49.344Z,16.50
2022-10-21T01:42:32.012Z,19.47
2022-10-21T01:45:19.811Z,19.27
2022-10-21T01:47:51.417Z,20.83
2022-10-21T01:50:24.883Z,18.73
2022-10-21T01:52:59.136Z,17.77
2022-10-21T01:55:29.700Z,16.77
2022-10-21T01:58:03.733Z,16.40
2022-10-21T02:00:32.629Z,15.43
2022-10-21T02:03:01.968Z,17.23
2022-10-21T02:05:31.893Z,18.00
2022-10-21T02:07:58.944Z,16.63
2022-10-21T02:10:31.956Z,14.67
2022-10-21T02:13:02.391Z,14.93
2022-10-21T02:15:30.255Z,14.80
2022-10-21T02:18:04.240Z,17.90
2022-10-21T02:20:36.273Z,28.37
2022-10-21T02:23:04.765Z,20.63
2022-10-21T02:25:36.707Z,16.53
2022-10-21T02:28:04.580Z,17.20
2022-10-21T02:30:40.224Z,17.83
2022-10-21T02:33:14.059Z,16.63
2022-10-21T02:36:14.589Z,16.20
2022-10-21T02:38:47.629Z,15.40
2022-10-21T02:41:19.046Z,16.10
2022-10-21T02:43:55.310Z,14.70
2022-10-21T02:46:22.215Z,13.70
2022-10-21T02:48:49.504Z,14.67
2022-10-21T02:51:16.647Z,13.97
2022-10-21T02:53:44.137Z,12.97
2022-10-21T02:56:10.876Z,13.37
2022-10-21T02:58:38.160Z,15.77
2022-10-21T03:01:05.190Z,14.50
2022-10-21T03:03:32.253Z,17.27
2022-10-21T03:05:59.034Z,17.40
2022-10-21T03:08:26.080Z,18.37
2022-10-21T03:10:53.618Z,15.60
2022-10-21T03:13:22.265Z,15.77
2022-10-21T03:15:50.163Z,16.30
2022-10-21T03:18:18.297Z,14.63
2022-10-21T03:20:48.365Z,14.20
2022-10-21T03:23:16.733Z,13.83
2022-10-21T03:25:43.643Z,14.90
2022-10-21T03:28:10.746Z,14.47
2022-10-21T03:30:37.585Z,13.93
2022-10-21T03:33:04.639Z,13.43
2022-10-21T03:35:31.530Z,12.67
2022-10-21T03:37:58.475Z,12.67
2022-10-21T03:40:29.916Z,12.73
2022-10-21T03:42:58.251Z,11.90
2022-10-21T03:45:25.733Z,12.83
2022-10-21T03:47:52.903Z,12.77
2022-10-21T03:50:23.559Z,11.47
2022-10-21T03:52:53.372Z,12.37
2022-10-21T03:55:21.135Z,13.27
2022-10-21T03:57:48.368Z,12.53
2022-10-21T04:00:15.905Z,12.57
2022-10-21T04:02:43.238Z,14.00
2022-10-21T04:05:10.101Z,13.37
2022-10-21T04:07:37.473Z,15.53
2022-10-21T04:10:06.048Z,16.47
2022-10-21T04:12:33.000Z,15.03
2022-10-21T04:14:59.940Z,17.33
2022-10-21T04:17:26.941Z,17.37
2022-10-21T04:19:53.843Z,16.50
2022-10-21T04:22:20.839Z,18.63
2022-10-21T04:24:47.613Z,19.07
2022-10-21T04:27:14.682Z,19.20
2022-10-21T04:29:41.455Z,20.67
2022-10-21T04:32:08.379Z,20.73
2022-10-21T04:34:35.130Z,21.70
2022-10-21T04:37:04.974Z,22.80
2022-10-21T04:39:32.437Z,23.67
2022-10-21T04:41:59.378Z,32.33
2022-10-21T04:44:26.190Z,34.33
2022-10-21T04:46:53.240Z,34.43
2022-10-21T04:49:20.316Z,33.53
2022-10-21T04:51:47.345Z,31.27
2022-10-21T04:54:14.391Z,26.00
2022-10-21T04:56:42.837Z,23.30
2022-10-21T04:59:09.870Z,20.20
2022-10-21T05:01:36.923Z,18.17
2022-10-21T05:04:03.770Z,17.50
2022-10-21T05:06:30.895Z,17.83
2022-10-21T05:08:57.819Z,15.83
2022-10-21T05:11:24.948Z,14.00
2022-10-21T05:13:51.755Z,15.13
2022-10-21T05:16:18.749Z,15.00
2022-10-21T05:18:45.535Z,14.97
2022-10-21T05:21:13.242Z,15.57
2022-10-21T05:23:40.069Z,15.57
2022-10-21T05:26:07.522Z,15.10
2022-10-21T05:28:34.300Z,15.47
2022-10-21T05:31:01.254Z,14.50
2022-10-21T05:33:28.523Z,14.50
2022-10-21T05:36:01.780Z,15.67
2022-10-21T05:38:29.532Z,15.83
2022-10-21T05:40:57.135Z,14.33
2022-10-21T05:43:24.504Z,15.40
2022-10-21T05:45:51.459Z,15.13
2022-10-21T05:48:18.370Z,14.70
2022-10-21T05:50:46.712Z,14.40
2022-10-21T05:53:14.287Z,13.97
2022-10-21T05:55:41.233Z,16.30
2022-10-21T05:58:08.090Z,16.23
2022-10-21T06:00:35.400Z,17.60
2022-10-21T06:03:02.308Z,15.63
2022-10-21T06:05:29.329Z,15.60
2022-10-21T06:07:56.297Z,16.50
2022-10-21T06:10:26.744Z,16.13
2022-10-21T06:12:56.127Z,15.63
2022-10-21T06:15:23.091Z,17.10
2022-10-21T06:17:51.632Z,16.97
2022-10-21T06:20:18.902Z,16.03
2022-10-21T06:22:45.714Z,16.50
2022-10-21T06:25:12.751Z,16.13
2022-10-21T06:27:40.108Z,15.63
2022-10-21T06:30:07.888Z,17.10
2022-10-21T06:32:35.682Z,15.57
2022-10-21T06:35:03.665Z,15.17
2022-10-21T06:37:30.421Z,13.60
2022-10-21T06:39:57.474Z,14.43
2022-10-21T06:42:24.186Z,14.73
2022-10-21T06:44:52.773Z,14.27
2022-10-21T06:47:21.213Z,14.63
2022-10-21T06:49:48.217Z,13.27
2022-10-21T06:52:14.972Z,13.23
2022-10-21T06:54:42.047Z,13.63
2022-10-21T06:57:08.837Z,14.03
2022-10-21T06:59:35.795Z,18.47
2022-10-21T07:02:02.900Z,12.53
2022-10-21T07:04:29.933Z,15.40
2022-10-21T07:06:56.901Z,14.93
2022-10-21T07:09:24.022Z,13.97
2022-10-21T07:11:51.046Z,13.90
2022-10-21T07:14:17.970Z,15.67
2022-10-21T07:16:44.751Z,13.53
2022-10-21T07:19:11.715Z,13.00
2022-10-21T07:21:38.598Z,13.80
2022-10-21T07:24:06.287Z,13.33
2022-10-21T07:26:34.507Z,14.77
2022-10-21T07:29:02.255Z,14.07
2022-10-21T07:31:33.407Z,13.90
2022-10-21T07:34:01.660Z,15.03
2022-10-21T07:36:32.121Z,13.50
2022-10-21T07:39:03.283Z,13.77
2022-10-21T07:41:37.203Z,13.00
2022-10-21T07:44:06.034Z,14.13
2022-10-21T07:46:33.423Z,13.13
2022-10-21T07:49:00.448Z,12.60
2022-10-21T07:51:28.845Z,13.60
2022-10-21T07:53:59.652Z,12.93
2022-10-21T07:56:30.896Z,12.53
2022-10-21T07:58:58.427Z,12.53
2022-10-21T08:01:25.530Z,13.00
2022-10-21T08:03:54.543Z,12.27
2022-10-21T08:06:22.628Z,12.00
2022-10-21T08:08:49.713Z,12.63
2022-10-21T08:11:27.399Z,12.20
2022-10-21T08:13:54.759Z,12.20
2022-10-21T08:16:21.687Z,12.90
2022-10-21T08:18:48.837Z,12.53
2022-10-21T08:21:16.443Z,12.83
2022-10-21T08:23:44.557Z,12.17
2022-10-21T08:26:13.777Z,13.60
2022-10-21T08:28:40.956Z,13.17
2022-10-21T08:31:16.149Z,12.87
2022-10-21T08:33:44.471Z,12.70
2022-10-21T08:36:21.006Z,12.83
2022-10-21T08:38:48.997Z,12.57
2022-10-21T08:41:25.320Z,13.27
2022-10-21T08:43:54.339Z,11.60
2022-10-21T08:46:26.417Z,13.17
2022-10-21T08:49:02.764Z,12.87
2022-10-21T08:51:41.582Z,13.90
2022-10-21T08:54:22.178Z,13.03
2022-10-21T08:56:54.980Z,12.53
2022-10-21T08:59:25.316Z,11.57
2022-10-21T09:02:05.432Z,12.07
2022-10-21T09:05:15.933Z,12.93
2022-10-21T09:08:10.679Z,12.27
2022-10-21T10:26:56.056Z,15.37
2022-10-21T10:29:28.224Z,12.40
2022-10-21T10:31:57.593Z,12.93
2022-10-21T10:34:32.916Z,12.27
2022-10-21T10:37:04.511Z,12.00
2022-10-21T10:39:35.085Z,12.77
2022-10-21T10:42:03.343Z,10.90
2022-10-21T10:44:40.692Z,12.77
2022-10-21T10:47:18.024Z,11.50
2022-10-21T10:49:45.193Z,12.47
2022-10-21T10:52:11.992Z,12.23
2022-10-21T10:54:40.822Z,12.67
2022-10-21T10:57:35.342Z,11.80
2022-10-21T11:00:16.718Z,11.73
2022-10-21T11:03:01.683Z,11.93
2022-10-21T11:05:38.831Z,11.97
2022-10-21T11:08:34.248Z,11.30
2022-10-21T11:11:17.608Z,10.87
2022-10-21T11:13:44.383Z,11.17
2022-10-21T11:16:57.231Z,11.70
2022-10-21T11:19:35.565Z,12.30
2022-10-21T11:22:29.958Z,12.00
2022-10-21T11:25:16.452Z,13.07
2022-10-21T11:27:53.222Z,11.27
2022-10-21T11:30:23.155Z,11.90
2022-10-21T11:33:02.171Z,13.53
2022-10-21T11:35:41.263Z,12.63
2022-10-21T11:38:32.997Z,11.70
2022-10-21T11:41:06.807Z,11.30
2022-10-21T11:43:33.813Z,12.33
2022-10-21T11:46:32.588Z,11.70
2022-10-21T11:49:25.551Z,11.63
2022-10-21T11:52:22.302Z,13.63
2022-10-21T11:55:13.842Z,12.40
2022-10-21T11:57:53.549Z,11.90
2022-10-21T12:00:23.997Z,13.23
2022-10-21T12:03:28.122Z,11.83
2022-10-21T12:06:02.293Z,12.10
2022-10-21T12:08:43.097Z,11.57
2022-10-21T12:11:30.615Z,12.13
2022-10-21T12:14:18.093Z,11.20
2022-10-21T12:16:46.914Z,11.50
2022-10-21T12:19:14.175Z,11.90
2022-10-21T12:21:44.735Z,12.03
2022-10-21T12:24:26.878Z,12.20
2022-10-21T12:27:02.741Z,10.20
2022-10-21T12:29:44.805Z,11.20
2022-10-21T12:32:39.349Z,10.73
2022-10-21T12:35:11.589Z,11.70
2022-10-21T12:37:51.759Z,12.00
2022-10-21T12:40:27.820Z,12.50
2022-10-21T12:43:20.555Z,11.60
2022-10-21T12:46:00.855Z,11.97
2022-10-21T12:48:39.504Z,11.03
2022-10-21T12:51:17.782Z,11.53
2022-10-21T12:54:04.237Z,11.90
2022-10-21T12:57:04.715Z,10.83
2022-10-21T12:59:42.997Z,12.33
2022-10-21T13:02:23.473Z,12.30
2022-10-21T13:04:53.132Z,11.70
2022-10-21T13:07:31.802Z,12.50
2022-10-21T13:09:59.381Z,12.10
2022-10-21T13:12:29.921Z,12.47
2022-10-21T13:14:58.374Z,13.87
2022-10-21T13:17:48.628Z,13.10
2022-10-21T13:20:15.602Z,12.83
2022-10-21T13:22:47.624Z,13.10
2022-10-21T13:25:28.752Z,13.50
2022-10-21T13:28:13.924Z,11.97
2022-10-21T13:30:59.083Z,12.17
2022-10-21T13:33:35.876Z,12.20
2022-10-21T13:36:12.876Z,11.47
2022-10-21T13:38:50.350Z,11.57
2022-10-21T13:41:29.192Z,11.10
2022-10-21T13:44:06.605Z,11.80
2022-10-21T13:46:43.354Z,12.47
2022-10-21T13:49:32.592Z,11.60
2022-10-21T13:51:59.638Z,11.60
2022-10-21T13:54:26.497Z,12.20
2022-10-21T13:56:53.436Z,11.80
2022-10-21T13:59:33.876Z,12.67
2022-10-21T14:02:02.116Z,12.67
2022-10-21T14:04:34.285Z,13.23
2022-10-21T14:07:04.931Z,12.87
2022-10-21T14:09:34.728Z,14.73
2022-10-21T14:12:04.598Z,14.73
2022-10-21T14:14:33.365Z,14.30
2022-10-21T14:17:08.176Z,12.83
2022-10-21T14:19:38.830Z,12.40
2022-10-21T14:22:09.879Z,13.17
2022-10-21T14:24:41.799Z,13.73
2022-10-21T14:27:17.278Z,13.30
2022-10-21T14:29:45.002Z,13.40
2022-10-21T14:32:17.885Z,13.37
2022-10-21T14:34:56.908Z,13.40
2022-10-21T14:37:23.946Z,13.63
2022-10-21T14:39:50.753Z,13.70
2022-10-21T14:42:24.791Z,14.57
2022-10-21T14:45:04.526Z,14.73
2022-10-21T14:47:31.672Z,13.20
2022-10-21T14:50:01.491Z,15.10
2022-10-21T14:52:33.280Z,15.00
2022-10-21T14:55:06.450Z,13.63
2022-10-21T14:57:53.512Z,14.10
2022-10-21T15:00:29.043Z,14.17
2022-10-21T15:02:59.365Z,17.60
2022-10-21T15:05:31.740Z,28.80
2022-10-21T15:08:21.373Z,50.13
2022-10-21T15:10:54.619Z,26.63
2022-10-21T15:13:21.604Z,21.03
2022-10-21T15:15:59.252Z,19.63
2022-10-21T15:18:32.399Z,18.10
2022-10-21T15:21:10.836Z,15.77
2022-10-21T15:23:41.679Z,14.70
2022-10-21T15:26:21.079Z,14.77
2022-10-21T15:28:48.753Z,19.40
2022-10-21T15:31:18.037Z,23.77
2022-10-21T15:33:45.059Z,31.20
2022-10-21T15:36:13.127Z,23.90
2022-10-21T15:38:46.616Z,19.80
2022-10-21T15:41:25.186Z,18.13
2022-10-21T15:44:00.806Z,19.83
2022-10-21T15:46:29.597Z,33.37
2022-10-21T15:48:57.188Z,34.70
2022-10-21T15:51:24.140Z,28.47
2022-10-21T15:53:51.217Z,20.10
2022-10-21T15:56:19.656Z,21.60
2022-10-21T15:58:46.681Z,32.87
2022-10-21T16:01:19.288Z,55.03
2022-10-21T16:03:46.456Z,39.27
2022-10-21T16:06:18.652Z,26.67
2022-10-21T16:08:46.033Z,26.10
2022-10-21T16:11:18.843Z,23.17
2022-10-21T16:13:52.779Z,23.77
2022-10-21T16:16:25.683Z,23.10
2022-10-21T16:18:53.391Z,25.40
2022-10-21T16:21:22.206Z,25.43
2022-10-21T16:23:49.641Z,28.37
2022-10-21T16:26:24.894Z,25.37
2022-10-21T16:28:53.556Z,25.00
2022-10-21T16:31:24.506Z,26.33
2022-10-21T16:33:51.641Z,27.30
2022-10-21T16:36:22.468Z,30.43
2022-10-21T16:38:51.112Z,27.37
2022-10-21T16:41:20.903Z,28.50
2022-10-21T16:43:48.083Z,25.23
2022-10-21T16:46:35.384Z,28.13
2022-10-21T16:49:13.100Z,26.33
2022-10-21T16:51:42.960Z,25.73
2022-10-21T16:54:10.666Z,28.40
2022-10-21T16:56:37.457Z,27.43
2022-10-21T16:59:04.509Z,39.77
2022-10-21T17:01:31.410Z,37.57
2022-10-21T17:03:58.516Z,28.63
2022-10-21T17:06:26.979Z,27.37
2022-10-21T17:08:56.034Z,27.70
2022-10-21T17:11:28.367Z,27.43
2022-10-21T17:13:55.405Z,27.53
2022-10-21T17:16:22.152Z,29.17
2022-10-21T17:18:49.265Z,29.90
2022-10-21T17:21:27.619Z,28.57
2022-10-21T17:23:55.700Z,26.63
2022-10-21T17:26:23.406Z,24.80
2022-10-21T17:28:50.573Z,26.77
2022-10-21T17:31:23.354Z,25.50
2022-10-21T17:33:51.984Z,30.30
2022-10-21T17:36:19.341Z,36.70
2022-10-21T17:38:46.858Z,30.97
2022-10-21T17:41:15.999Z,32.00
2022-10-21T17:43:43.356Z,29.83
2022-10-21T17:46:17.123Z,29.27
2022-10-21T17:48:44.317Z,31.00
2022-10-21T17:51:11.135Z,29.53
2022-10-21T17:53:38.034Z,31.43
2022-10-21T17:56:07.493Z,31.57
2022-10-21T17:58:35.185Z,28.70
2022-10-21T18:01:10.486Z,30.07
2022-10-21T18:03:38.113Z,27.50
2022-10-21T18:06:10.097Z,28.20
2022-10-21T18:08:37.578Z,26.50
2022-10-21T18:11:08.953Z,26.90
2022-10-21T18:13:37.148Z,26.20
2022-10-21T18:16:07.225Z,27.03
2022-10-21T18:18:35.253Z,26.13
2022-10-21T18:21:03.850Z,26.60
2022-10-21T18:23:30.998Z,27.60
2022-10-21T18:26:03.956Z,27.50
2022-10-21T18:28:32.464Z,27.60
2022-10-21T18:31:00.797Z,27.93
2022-10-21T18:33:28.609Z,27.43
2022-10-21T18:35:55.445Z,28.13
2022-10-21T18:38:22.832Z,29.17
2022-10-21T18:40:56.459Z,28.17
2022-10-21T18:43:29.397Z,29.23
2022-10-21T18:45:56.854Z,29.33
2022-10-21T18:48:24.169Z,30.87
2022-10-21T18:50:50.975Z,29.63
2022-10-21T18:53:17.964Z,31.67
2022-10-21T18:55:44.761Z,28.37
2022-10-21T18:58:11.949Z,26.57
2022-10-21T19:00:38.835Z,27.13
2022-10-21T19:03:05.789Z,26.00
2022-10-21T19:05:32.586Z,29.93
2022-10-21T19:07:59.661Z,29.70
2022-10-21T19:10:26.410Z,32.57
2022-10-21T19:12:53.346Z,35.07
2022-10-21T19:15:21.224Z,35.73
2022-10-21T19:17:48.437Z,36.73
2022-10-21T19:20:15.274Z,35.90
2022-10-21T19:22:42.315Z,36.50
2022-10-21T19:25:09.297Z,36.67
2022-10-21T19:27:36.418Z,39.90
2022-10-21T19:30:03.651Z,37.97
2022-10-21T19:32:31.053Z,37.83
2022-10-21T19:34:57.854Z,37.97
2022-10-21T19:37:24.847Z,35.60
2022-10-21T19:39:51.638Z,32.77
2022-10-21T19:42:18.778Z,31.17
2022-10-21T19:44:45.491Z,30.63
2022-10-21T19:47:12.424Z,33.37
2022-10-21T19:49:39.428Z,35.37
2022-10-21T19:52:06.823Z,33.80
2022-10-21T19:54:33.573Z,34.00
2022-10-21T19:57:00.523Z,32.67
2022-10-21T19:59:27.359Z,27.50
2022-10-21T20:01:54.894Z,29.13
2022-10-21T20:04:22.607Z,41.67
2022-10-21T20:06:49.638Z,40.10
2022-10-21T20:09:16.486Z,34.10
2022-10-21T20:11:43.525Z,30.70
2022-10-21T20:14:13.168Z,31.97
2022-10-21T20:16:43.149Z,30.53
2022-10-21T20:19:12.504Z,32.33
2022-10-21T20:21:40.178Z,26.97
2022-10-21T20:24:07.559Z,25.67
2022-10-21T20:26:34.587Z,25.37
2022-10-21T20:29:02.041Z,24.57
2022-10-21T20:31:29.996Z,24.27
2022-10-21T20:33:57.186Z,25.17
2022-10-21T20:36:26.899Z,24.30
2022-10-21T20:38:55.954Z,26.90
2022-10-21T20:41:26.688Z,27.37
2022-10-21T20:43:54.484Z,25.07
2022-10-21T20:46:24.439Z,28.13
2022-10-21T20:48:52.956Z,28.53
2022-10-21T20:51:23.708Z,27.23
2022-10-21T20:53:56.362Z,26.80
2022-10-21T20:56:27.777Z,25.53
2022-10-21T20:58:55.635Z,25.93
2022-10-21T21:01:28.667Z,26.20
2022-10-21T21:03:57.923Z,25.87
2022-10-21T21:06:26.006Z,25.40
2022-10-21T21:09:15.186Z,25.27
2022-10-21T21:11:40.500Z,25.37
2022-10-21T21:14:07.283Z,25.40
2022-10-21T21:16:34.326Z,25.57
2022-10-21T21:19:03.560Z,25.43
2022-10-21T21:21:33.816Z,24.33
2022-10-21T21:24:02.589Z,25.60
2022-10-21T21:26:30.868Z,34.63
2022-10-21T21:28:58.056Z,33.67
2022-10-21T21:31:27.236Z,28.57
2022-10-21T21:33:54.810Z,27.77
2022-10-21T21:36:22.665Z,25.57
2022-10-21T21:38:50.419Z,24.17
2022-10-21T21:41:18.220Z,24.60
2022-10-21T21:43:46.894Z,23.77
2022-10-21T21:46:22.635Z,24.40
2022-10-21T21:48:55.362Z,24.50
2022-10-21T21:51:25.722Z,23.83
2022-10-21T21:53:53.051Z,26.73
2022-10-21T21:56:20.661Z,26.00
2022-10-21T21:58:48.596Z,27.90
2022-10-21T22:01:20.262Z,27.47
2022-10-21T22:03:49.554Z,26.57
2022-10-21T22:06:19.393Z,28.20
2022-10-21T22:08:46.601Z,26.30
2022-10-21T22:11:17.148Z,27.43
2022-10-21T22:13:44.218Z,26.43
2022-10-21T22:16:12.973Z,26.60
2022-10-21T22:18:39.983Z,27.53
2022-10-21T22:21:09.237Z,29.83
2022-10-21T22:23:37.237Z,30.60
2022-10-21T22:26:05.379Z,34.50
2022-10-21T22:28:32.273Z,38.37
2022-10-21T22:31:05.478Z,45.47
2022-10-21T22:33:32.940Z,45.23
2022-10-21T22:36:00.628Z,41.87
2022-10-21T22:38:29.358Z,38.80
2022-10-21T22:41:12.531Z,40.10
2022-10-21T22:43:43.004Z,36.30
2022-10-21T22:49:04.823Z,32.73
2022-10-21T22:51:33.179Z,33.30
2022-10-21T22:54:01.266Z,31.27
2022-10-21T22:56:28.797Z,32.20
2022-10-21T22:58:57.474Z,32.60
2022-10-21T23:01:28.975Z,32.23
2022-10-21T23:04:03.167Z,33.17
2022-10-21T23:06:31.648Z,32.13
2022-10-21T23:08:59.042Z,32.13
2022-10-21T23:11:26.043Z,34.23
2022-10-21T23:14:02.818Z,33.43
2022-10-21T23:16:31.943Z,31.40
2022-10-21T23:18:59.165Z,31.87
2022-10-21T23:21:26.287Z,35.37
2022-10-21T23:23:53.026Z,33.23
2022-10-21T23:26:19.964Z,31.50
2022-10-21T23:28:46.801Z,34.03
2022-10-21T23:31:13.796Z,33.03
2022-10-21T23:33:40.592Z,33.07
2022-10-21T23:36:07.737Z,33.70
2022-10-21T23:38:34.556Z,31.67
2022-10-21T23:41:01.425Z,31.50
2022-10-21T23:43:28.313Z,32.13
2022-10-21T23:45:55.272Z,33.53
2022-10-21T23:48:22.068Z,31.83
2022-10-21T23:50:49.155Z,34.43
2022-10-21T23:53:16.039Z,31.67
2022-10-21T23:55:42.948Z,32.23
2022-10-21T23:58:09.741Z,32.83
